sensor_id;sensor_type;location;lat;lon;timestamp;pressure;altitude;pressure_sealevel;temperature;humidity
41106;BME280;74159;52.530;13.188;2024-01-25T00:01:56;101151.88;;;7.43;66.45
41106;BME280;74159;52.530;13.188;2024-01-25T00:04:21;101154.03;;;7.41;66.40
41106;BME280;74159;52.530;13.188;2024-01-25T00:06:46;101143.03;;;7.41;66.75
41106;BME280;74159;52.530;13.188;2024-01-25T00:09:12;101157.88;;;7.40;66.53
41106;BME280;74159;52.530;13.188;2024-01-25T00:11:37;101165.63;;;7.43;66.85
41106;BME280;74159;52.530;13.188;2024-01-25T00:14:03;101161.69;;;7.39;67.13
41106;BME280;74159;52.530;13.188;2024-01-25T00:16:28;101163.47;;;7.45;66.41
41106;BME280;74159;52.530;13.188;2024-01-25T00:18:54;101146.88;;;7.40;67.10
41106;BME280;74159;52.530;13.188;2024-01-25T00:21:19;101160.22;;;7.48;66.77
41106;BME280;74159;52.530;13.188;2024-01-25T00:23:45;101171.22;;;7.48;66.23
41106;BME280;74159;52.530;13.188;2024-01-25T00:26:10;101170.50;;;7.53;66.55
41106;BME280;74159;52.530;13.188;2024-01-25T00:28:36;101168.38;;;7.43;66.87
41106;BME280;74159;52.530;13.188;2024-01-25T00:31:01;101178.66;;;7.48;66.02
41106;BME280;74159;52.530;13.188;2024-01-25T00:33:27;101177.31;;;7.50;65.91
41106;BME280;74159;52.530;13.188;2024-01-25T00:35:52;101174.81;;;7.49;66.27
41106;BME280;74159;52.530;13.188;2024-01-25T00:38:18;101172.06;;;7.49;66.61
41106;BME280;74159;52.530;13.188;2024-01-25T00:40:45;101175.06;;;7.47;66.36
41106;BME280;74159;52.530;13.188;2024-01-25T00:43:11;101171.81;;;7.50;66.52
41106;BME280;74159;52.530;13.188;2024-01-25T00:45:36;101182.81;;;7.50;66.05
41106;BME280;74159;52.530;13.188;2024-01-25T00:48:02;101200.50;;;7.54;65.97
41106;BME280;74159;52.530;13.188;2024-01-25T00:50:28;101201.84;;;7.52;66.27
41106;BME280;74159;52.530;13.188;2024-01-25T00:52:53;101212.59;;;7.53;65.95
41106;BME280;74159;52.530;13.188;2024-01-25T00:55:19;101216.56;;;7.58;65.90
41106;BME280;74159;52.530;13.188;2024-01-25T00:57:45;101222.91;;;7.58;65.66
41106;BME280;74159;52.530;13.188;2024-01-25T01:00:11;101224.19;;;7.55;65.90
41106;BME280;74159;52.530;13.188;2024-01-25T01:02:40;101235.81;;;7.58;65.86
41106;BME280;74159;52.530;13.188;2024-01-25T01:05:08;101236.06;;;7.56;65.60
41106;BME280;74159;52.530;13.188;2024-01-25T01:07:34;101237.63;;;7.52;65.66
41106;BME280;74159;52.530;13.188;2024-01-25T01:09:59;101235.13;;;7.50;65.86
41106;BME280;74159;52.530;13.188;2024-01-25T01:12:25;101228.66;;;7.57;65.62
41106;BME280;74159;52.530;13.188;2024-01-25T01:14:50;101239.28;;;7.53;65.49
41106;BME280;74159;52.530;13.188;2024-01-25T01:17:15;101232.84;;;7.47;65.77
41106;BME280;74159;52.530;13.188;2024-01-25T01:19:41;101251.13;;;7.53;65.92
41106;BME280;74159;52.530;13.188;2024-01-25T01:22:06;101240.25;;;7.59;65.54
41106;BME280;74159;52.530;13.188;2024-01-25T01:24:32;101241.69;;;7.49;66.00
41106;BME280;74159;52.530;13.188;2024-01-25T01:26:57;101236.69;;;7.46;66.15
41106;BME280;74159;52.530;13.188;2024-01-25T01:29:24;101251.03;;;7.48;66.00
41106;BME280;74159;52.530;13.188;2024-01-25T01:31:49;101243.97;;;7.52;65.90
41106;BME280;74159;52.530;13.188;2024-01-25T01:34:14;101268.13;;;7.50;65.72
41106;BME280;74159;52.530;13.188;2024-01-25T01:36:42;101261.44;;;7.46;65.98
41106;BME280;74159;52.530;13.188;2024-01-25T01:39:08;101254.97;;;7.52;65.74
41106;BME280;74159;52.530;13.188;2024-01-25T01:41:34;101256.28;;;7.50;65.54
41106;BME280;74159;52.530;13.188;2024-01-25T01:43:59;101270.31;;;7.48;65.34
41106;BME280;74159;52.530;13.188;2024-01-25T01:46:34;101261.22;;;7.48;65.06
41106;BME280;74159;52.530;13.188;2024-01-25T01:49:01;101260.75;;;7.39;65.46
41106;BME280;74159;52.530;13.188;2024-01-25T01:51:27;101271.38;;;7.47;65.32
41106;BME280;74159;52.530;13.188;2024-01-25T01:53:53;101261.94;;;7.43;65.76
41106;BME280;74159;52.530;13.188;2024-01-25T01:56:19;101252.34;;;7.46;65.70
41106;BME280;74159;52.530;13.188;2024-01-25T01:58:46;101270.78;;;7.45;65.50
41106;BME280;74159;52.530;13.188;2024-01-25T02:01:13;101259.19;;;7.43;65.28
41106;BME280;74159;52.530;13.188;2024-01-25T02:03:38;101252.25;;;7.41;65.69
41106;BME280;74159;52.530;13.188;2024-01-25T02:06:04;101253.78;;;7.37;65.72
41106;BME280;74159;52.530;13.188;2024-01-25T02:08:30;101275.09;;;7.41;65.43
41106;BME280;74159;52.530;13.188;2024-01-25T02:10:55;101271.13;;;7.37;65.88
41106;BME280;74159;52.530;13.188;2024-01-25T02:13:21;101271.38;;;7.36;65.41
41106;BME280;74159;52.530;13.188;2024-01-25T02:15:47;101271.88;;;7.33;65.89
41106;BME280;74159;52.530;13.188;2024-01-25T02:18:12;101261.69;;;7.33;66.07
41106;BME280;74159;52.530;13.188;2024-01-25T02:20:38;101290.28;;;7.32;66.25
41106;BME280;74159;52.530;13.188;2024-01-25T02:23:03;101263.88;;;7.31;65.74
41106;BME280;74159;52.530;13.188;2024-01-25T02:25:29;101258.38;;;7.31;66.14
41106;BME280;74159;52.530;13.188;2024-01-25T02:27:54;101269.00;;;7.28;66.17
41106;BME280;74159;52.530;13.188;2024-01-25T02:30:19;101264.84;;;7.25;66.95
41106;BME280;74159;52.530;13.188;2024-01-25T02:32:45;101260.03;;;7.32;66.60
41106;BME280;74159;52.530;13.188;2024-01-25T02:35:10;101252.25;;;7.29;66.04
41106;BME280;74159;52.530;13.188;2024-01-25T02:37:35;101260.16;;;7.26;66.39
41106;BME280;74159;52.530;13.188;2024-01-25T02:40:01;101263.03;;;7.19;66.79
41106;BME280;74159;52.530;13.188;2024-01-25T02:42:26;101250.94;;;7.20;66.94
41106;BME280;74159;52.530;13.188;2024-01-25T02:44:51;101267.09;;;7.16;66.79
41106;BME280;74159;52.530;13.188;2024-01-25T02:47:17;101272.94;;;7.20;66.76
41106;BME280;74159;52.530;13.188;2024-01-25T02:49:42;101258.13;;;7.21;66.51
41106;BME280;74159;52.530;13.188;2024-01-25T02:52:07;101261.13;;;7.19;66.71
41106;BME280;74159;52.530;13.188;2024-01-25T02:54:36;101273.34;;;7.23;66.46
41106;BME280;74159;52.530;13.188;2024-01-25T02:57:04;101279.66;;;7.24;66.22
41106;BME280;74159;52.530;13.188;2024-01-25T02:59:30;101264.09;;;7.18;66.48
41106;BME280;74159;52.530;13.188;2024-01-25T03:01:55;101271.75;;;7.16;66.26
41106;BME280;74159;52.530;13.188;2024-01-25T03:04:20;101278.59;;;7.13;66.23
41106;BME280;74159;52.530;13.188;2024-01-25T03:06:46;101281.69;;;7.17;66.37
41106;BME280;74159;52.530;13.188;2024-01-25T03:09:11;101284.44;;;7.17;66.38
41106;BME280;74159;52.530;13.188;2024-01-25T03:11:36;101265.19;;;7.17;65.87
41106;BME280;74159;52.530;13.188;2024-01-25T03:14:02;101284.44;;;7.17;65.94
41106;BME280;74159;52.530;13.188;2024-01-25T03:16:27;101277.75;;;7.13;66.11
41106;BME280;74159;52.530;13.188;2024-01-25T03:18:52;101268.41;;;7.14;65.61
41106;BME280;74159;52.530;13.188;2024-01-25T03:21:18;101282.41;;;7.12;65.57
41106;BME280;74159;52.530;13.188;2024-01-25T03:23:43;101274.03;;;7.19;65.71
41106;BME280;74159;52.530;13.188;2024-01-25T03:26:08;101275.59;;;7.15;65.39
41106;BME280;74159;52.530;13.188;2024-01-25T03:28:34;101280.25;;;7.14;65.47
41106;BME280;74159;52.530;13.188;2024-01-25T03:31:00;101284.44;;;7.17;66.00
41106;BME280;74159;52.530;13.188;2024-01-25T03:33:25;101300.25;;;7.10;65.53
41106;BME280;74159;52.530;13.188;2024-01-25T03:35:52;101299.88;;;7.06;65.71
41106;BME280;74159;52.530;13.188;2024-01-25T03:38:17;101314.94;;;7.15;65.80
41106;BME280;74159;52.530;13.188;2024-01-25T03:40:43;101303.09;;;7.15;65.26
41106;BME280;74159;52.530;13.188;2024-01-25T03:43:08;101302.16;;;7.09;65.72
41106;BME280;74159;52.530;13.188;2024-01-25T03:45:33;101305.25;;;7.13;65.59
41106;BME280;74159;52.530;13.188;2024-01-25T03:47:59;101300.25;;;7.10;65.70
41106;BME280;74159;52.530;13.188;2024-01-25T03:50:24;101303.91;;;7.04;65.60
41106;BME280;74159;52.530;13.188;2024-01-25T03:52:49;101300.56;;;7.02;66.14
41106;BME280;74159;52.530;13.188;2024-01-25T03:55:15;101310.25;;;7.04;65.99
41106;BME280;74159;52.530;13.188;2024-01-25T03:57:40;101302.41;;;7.08;65.97
41106;BME280;74159;52.530;13.188;2024-01-25T04:00:07;101313.00;;;7.04;66.08
41106;BME280;74159;52.530;13.188;2024-01-25T04:02:33;101306.06;;;7.02;65.67
41106;BME280;74159;52.530;13.188;2024-01-25T04:04:58;101302.84;;;6.93;66.17
41106;BME280;74159;52.530;13.188;2024-01-25T04:07:23;101306.66;;;7.04;65.95
41106;BME280;74159;52.530;13.188;2024-01-25T04:09:48;101299.50;;;7.03;66.16
41106;BME280;74159;52.530;13.188;2024-01-25T04:12:15;101305.47;;;7.00;66.48
41106;BME280;74159;52.530;13.188;2024-01-25T04:14:41;101319.00;;;7.01;66.50
41106;BME280;74159;52.530;13.188;2024-01-25T04:17:06;101320.41;;;7.04;66.67
41106;BME280;74159;52.530;13.188;2024-01-25T04:19:31;101325.44;;;6.95;66.14
41106;BME280;74159;52.530;13.188;2024-01-25T04:21:57;101327.84;;;6.91;66.40
41106;BME280;74159;52.530;13.188;2024-01-25T04:24:22;101353.31;;;6.99;66.37
41106;BME280;74159;52.530;13.188;2024-01-25T04:26:47;101338.00;;;7.03;65.96
41106;BME280;74159;52.530;13.188;2024-01-25T04:29:13;101348.63;;;6.87;67.15
41106;BME280;74159;52.530;13.188;2024-01-25T04:31:45;101368.50;;;7.01;66.23
41106;BME280;74159;52.530;13.188;2024-01-25T04:34:12;101368.13;;;6.98;66.50
41106;BME280;74159;52.530;13.188;2024-01-25T04:36:38;101345.16;;;7.04;66.55
41106;BME280;74159;52.530;13.188;2024-01-25T04:39:04;101348.53;;;6.94;66.94
41106;BME280;74159;52.530;13.188;2024-01-25T04:41:29;101348.28;;;6.96;66.30
41106;BME280;74159;52.530;13.188;2024-01-25T04:43:54;101357.00;;;6.92;66.21
41106;BME280;74159;52.530;13.188;2024-01-25T04:46:20;101361.44;;;6.93;66.38
41106;BME280;74159;52.530;13.188;2024-01-25T04:48:45;101355.34;;;6.91;66.42
41106;BME280;74159;52.530;13.188;2024-01-25T04:51:18;101374.00;;;6.89;66.59
41106;BME280;74159;52.530;13.188;2024-01-25T04:53:45;101378.78;;;6.94;66.86
41106;BME280;74159;52.530;13.188;2024-01-25T04:56:10;101384.63;;;6.98;67.05
41106;BME280;74159;52.530;13.188;2024-01-25T04:58:35;101387.84;;;6.94;66.96
41106;BME280;74159;52.530;13.188;2024-01-25T05:01:01;101377.09;;;6.93;66.43
41106;BME280;74159;52.530;13.188;2024-01-25T05:03:26;101386.03;;;6.88;67.41
41106;BME280;74159;52.530;13.188;2024-01-25T05:05:52;101391.09;;;6.91;67.18
41106;BME280;74159;52.530;13.188;2024-01-25T05:08:17;101390.25;;;6.91;67.17
41106;BME280;74159;52.530;13.188;2024-01-25T05:10:43;101394.28;;;6.88;67.47
41106;BME280;74159;52.530;13.188;2024-01-25T05:13:12;101383.16;;;6.83;67.83
41106;BME280;74159;52.530;13.188;2024-01-25T05:15:37;101388.66;;;6.83;67.61
41106;BME280;74159;52.530;13.188;2024-01-25T05:18:03;101390.25;;;6.91;66.97
41106;BME280;74159;52.530;13.188;2024-01-25T05:20:28;101394.06;;;6.90;66.30
41106;BME280;74159;52.530;13.188;2024-01-25T05:23:01;101384.34;;;6.87;66.33
41106;BME280;74159;52.530;13.188;2024-01-25T05:25:26;101396.59;;;6.91;65.66
41106;BME280;74159;52.530;13.188;2024-01-25T05:27:53;101408.78;;;6.96;65.73
41106;BME280;74159;52.530;13.188;2024-01-25T05:30:18;101410.94;;;6.93;66.11
41106;BME280;74159;52.530;13.188;2024-01-25T05:32:43;101407.59;;;6.91;66.50
41106;BME280;74159;52.530;13.188;2024-01-25T05:35:09;101399.34;;;6.91;66.29
41106;BME280;74159;52.530;13.188;2024-01-25T05:37:34;101427.50;;;6.87;66.42
41106;BME280;74159;52.530;13.188;2024-01-25T05:40:00;101427.16;;;6.83;66.67
41106;BME280;74159;52.530;13.188;2024-01-25T05:42:25;101432.09;;;6.93;66.66
41106;BME280;74159;52.530;13.188;2024-01-25T05:44:50;101437.59;;;6.93;66.46
41106;BME280;74159;52.530;13.188;2024-01-25T05:47:16;101433.66;;;7.01;67.25
41106;BME280;74159;52.530;13.188;2024-01-25T05:49:41;101449.56;;;6.99;67.00
41106;BME280;74159;52.530;13.188;2024-01-25T05:52:07;101447.28;;;6.96;67.02
41106;BME280;74159;52.530;13.188;2024-01-25T05:54:32;101448.66;;;6.86;66.62
41106;BME280;74159;52.530;13.188;2024-01-25T05:56:57;101453.97;;;7.00;66.11
41106;BME280;74159;52.530;13.188;2024-01-25T05:59:23;101442.84;;;6.94;65.62
41106;BME280;74159;52.530;13.188;2024-01-25T06:01:48;101458.97;;;6.91;66.54
41106;BME280;74159;52.530;13.188;2024-01-25T06:04:13;101457.69;;;6.93;66.83
41106;BME280;74159;52.530;13.188;2024-01-25T06:06:39;101473.56;;;6.91;66.99
41106;BME280;74159;52.530;13.188;2024-01-25T06:09:04;101486.72;;;6.89;66.18
41106;BME280;74159;52.530;13.188;2024-01-25T06:11:30;101478.78;;;6.81;66.74
41106;BME280;74159;52.530;13.188;2024-01-25T06:13:56;101493.06;;;6.90;66.62
41106;BME280;74159;52.530;13.188;2024-01-25T06:16:22;101473.94;;;6.95;66.32
41106;BME280;74159;52.530;13.188;2024-01-25T06:18:47;101464.63;;;6.96;66.56
41106;BME280;74159;52.530;13.188;2024-01-25T06:21:13;101475.72;;;6.89;66.12
41106;BME280;74159;52.530;13.188;2024-01-25T06:23:38;101483.06;;;7.07;66.08
41106;BME280;74159;52.530;13.188;2024-01-25T06:26:04;101487.06;;;7.35;66.88
41106;BME280;74159;52.530;13.188;2024-01-25T06:28:29;101494.81;;;7.14;66.71
41106;BME280;74159;52.530;13.188;2024-01-25T06:30:55;101506.34;;;7.05;67.29
41106;BME280;74159;52.530;13.188;2024-01-25T06:33:20;101508.59;;;6.96;65.89
41106;BME280;74159;52.530;13.188;2024-01-25T06:35:45;101513.88;;;6.98;65.98
41106;BME280;74159;52.530;13.188;2024-01-25T06:38:11;101503.59;;;6.93;65.76
41106;BME280;74159;52.530;13.188;2024-01-25T06:40:37;101504.78;;;6.97;65.71
41106;BME280;74159;52.530;13.188;2024-01-25T06:43:03;101501.97;;;6.85;65.69
41106;BME280;74159;52.530;13.188;2024-01-25T06:45:29;101502.75;;;6.92;65.47
41106;BME280;74159;52.530;13.188;2024-01-25T06:47:54;101509.44;;;6.97;65.41
41106;BME280;74159;52.530;13.188;2024-01-25T06:50:19;101519.72;;;6.89;65.95
41106;BME280;74159;52.530;13.188;2024-01-25T06:52:45;101523.22;;;6.78;65.38
41106;BME280;74159;52.530;13.188;2024-01-25T06:55:10;101507.47;;;6.85;65.03
41106;BME280;74159;52.530;13.188;2024-01-25T06:57:35;101524.91;;;6.79;65.43
41106;BME280;74159;52.530;13.188;2024-01-25T07:00:01;101529.78;;;6.96;65.15
41106;BME280;74159;52.530;13.188;2024-01-25T07:02:26;101536.22;;;6.89;65.34
41106;BME280;74159;52.530;13.188;2024-01-25T07:04:51;101537.41;;;6.93;65.36
41106;BME280;74159;52.530;13.188;2024-01-25T07:07:19;101549.16;;;7.01;64.84
41106;BME280;74159;52.530;13.188;2024-01-25T07:09:44;101558.94;;;6.97;65.81
41106;BME280;74159;52.530;13.188;2024-01-25T07:12:09;101565.28;;;6.97;65.51
41106;BME280;74159;52.530;13.188;2024-01-25T07:14:35;101567.34;;;7.02;65.45
41106;BME280;74159;52.530;13.188;2024-01-25T07:17:00;101571.94;;;6.89;66.39
41106;BME280;74159;52.530;13.188;2024-01-25T07:19:25;101572.94;;;6.95;65.74
41106;BME280;74159;52.530;13.188;2024-01-25T07:21:51;101575.75;;;7.07;65.31
41106;BME280;74159;52.530;13.188;2024-01-25T07:24:16;101572.56;;;6.91;66.21
41106;BME280;74159;52.530;13.188;2024-01-25T07:26:42;101569.94;;;6.97;66.01
41106;BME280;74159;52.530;13.188;2024-01-25T07:29:07;101578.66;;;6.93;66.22
41106;BME280;74159;52.530;13.188;2024-01-25T07:31:32;101575.75;;;6.88;66.20
41106;BME280;74159;52.530;13.188;2024-01-25T07:33:57;101607.97;;;7.00;66.02
41106;BME280;74159;52.530;13.188;2024-01-25T07:36:23;101612.13;;;6.90;66.05
41106;BME280;74159;52.530;13.188;2024-01-25T07:38:48;101600.19;;;6.97;66.09
41106;BME280;74159;52.530;13.188;2024-01-25T07:41:17;101608.59;;;6.83;67.01
41106;BME280;74159;52.530;13.188;2024-01-25T07:43:43;101623.72;;;6.92;67.01
41106;BME280;74159;52.530;13.188;2024-01-25T07:46:09;101616.47;;;6.98;66.17
41106;BME280;74159;52.530;13.188;2024-01-25T07:48:35;101623.56;;;6.87;66.86
41106;BME280;74159;52.530;13.188;2024-01-25T07:51:00;101631.13;;;6.92;66.86
41106;BME280;74159;52.530;13.188;2024-01-25T07:53:26;101627.94;;;6.95;66.13
41106;BME280;74159;52.530;13.188;2024-01-25T07:55:52;101630.59;;;6.83;66.37
41106;BME280;74159;52.530;13.188;2024-01-25T07:58:17;101634.34;;;6.89;66.37
41106;BME280;74159;52.530;13.188;2024-01-25T08:00:42;101645.25;;;6.77;66.40
41106;BME280;74159;52.530;13.188;2024-01-25T08:03:08;101638.69;;;6.78;66.09
41106;BME280;74159;52.530;13.188;2024-01-25T08:05:34;101651.75;;;6.83;65.87
41106;BME280;74159;52.530;13.188;2024-01-25T08:07:59;101653.38;;;6.90;65.26
41106;BME280;74159;52.530;13.188;2024-01-25T08:10:25;101643.88;;;6.86;66.15
41106;BME280;74159;52.530;13.188;2024-01-25T08:12:50;101660.31;;;6.93;65.98
41106;BME280;74159;52.530;13.188;2024-01-25T08:15:16;101660.22;;;6.81;65.32
41106;BME280;74159;52.530;13.188;2024-01-25T08:17:41;101669.53;;;6.80;65.89
41106;BME280;74159;52.530;13.188;2024-01-25T08:20:09;101690.34;;;6.94;65.29
41106;BME280;74159;52.530;13.188;2024-01-25T08:22:35;101684.75;;;6.83;65.91
41106;BME280;74159;52.530;13.188;2024-01-25T08:25:01;101669.41;;;6.93;64.71
41106;BME280;74159;52.530;13.188;2024-01-25T08:27:26;101670.94;;;6.89;65.35
41106;BME280;74159;52.530;13.188;2024-01-25T08:29:51;101680.22;;;6.88;65.46
41106;BME280;74159;52.530;13.188;2024-01-25T08:32:17;101681.94;;;6.89;65.05
41106;BME280;74159;52.530;13.188;2024-01-25T08:34:42;101682.97;;;6.88;64.99
41106;BME280;74159;52.530;13.188;2024-01-25T08:37:08;101688.56;;;6.82;65.48
41106;BME280;74159;52.530;13.188;2024-01-25T08:39:33;101683.66;;;6.84;65.34
41106;BME280;74159;52.530;13.188;2024-01-25T08:41:58;101694.91;;;7.01;64.79
41106;BME280;74159;52.530;13.188;2024-01-25T08:44:26;101689.53;;;6.87;65.46
41106;BME280;74159;52.530;13.188;2024-01-25T08:46:52;101682.91;;;6.95;65.37
41106;BME280;74159;52.530;13.188;2024-01-25T08:49:17;101679.84;;;7.03;64.80
41106;BME280;74159;52.530;13.188;2024-01-25T08:51:42;101687.88;;;7.05;64.70
41106;BME280;74159;52.530;13.188;2024-01-25T08:54:08;101711.72;;;7.11;64.96
41106;BME280;74159;52.530;13.188;2024-01-25T08:56:34;101695.84;;;7.13;64.80
41106;BME280;74159;52.530;13.188;2024-01-25T08:58:59;101708.75;;;7.12;64.75
41106;BME280;74159;52.530;13.188;2024-01-25T09:01:25;101708.28;;;6.97;65.30
41106;BME280;74159;52.530;13.188;2024-01-25T09:03:52;101713.41;;;6.93;64.93
41106;BME280;74159;52.530;13.188;2024-01-25T09:06:17;101709.44;;;7.08;65.05
41106;BME280;74159;52.530;13.188;2024-01-25T09:08:43;101721.88;;;6.92;65.42
41106;BME280;74159;52.530;13.188;2024-01-25T09:11:08;101719.44;;;7.02;64.91
41106;BME280;74159;52.530;13.188;2024-01-25T09:13:33;101727.03;;;7.07;64.91
41106;BME280;74159;52.530;13.188;2024-01-25T09:15:59;101718.22;;;7.16;64.71
41106;BME280;74159;52.530;13.188;2024-01-25T09:18:24;101745.13;;;7.14;64.77
41106;BME280;74159;52.530;13.188;2024-01-25T09:20:50;101732.34;;;7.02;65.61
41106;BME280;74159;52.530;13.188;2024-01-25T09:23:15;101752.22;;;7.22;64.61
41106;BME280;74159;52.530;13.188;2024-01-25T09:25:44;101750.84;;;7.13;65.29
41106;BME280;74159;52.530;13.188;2024-01-25T09:28:10;101755.44;;;7.19;64.96
41106;BME280;74159;52.530;13.188;2024-01-25T09:30:38;101750.47;;;7.28;65.10
41106;BME280;74159;52.530;13.188;2024-01-25T09:33:04;101750.84;;;7.13;65.09
41106;BME280;74159;52.530;13.188;2024-01-25T09:35:29;101760.19;;;7.12;65.43
41106;BME280;74159;52.530;13.188;2024-01-25T09:37:54;101754.22;;;7.15;65.56
41106;BME280;74159;52.530;13.188;2024-01-25T09:40:20;101758.50;;;7.11;65.45
41106;BME280;74159;52.530;13.188;2024-01-25T09:42:49;101770.47;;;6.98;66.19
41106;BME280;74159;52.530;13.188;2024-01-25T09:45:18;101768.41;;;6.93;66.19
41106;BME280;74159;52.530;13.188;2024-01-25T09:47:47;101768.44;;;7.12;65.08
41106;BME280;74159;52.530;13.188;2024-01-25T09:50:13;101764.88;;;7.05;65.76
41106;BME280;74159;52.530;13.188;2024-01-25T09:52:39;101775.00;;;7.11;65.30
41106;BME280;74159;52.530;13.188;2024-01-25T09:55:11;101779.88;;;7.09;65.14
41106;BME280;74159;52.530;13.188;2024-01-25T09:57:41;101781.63;;;7.03;65.31
41106;BME280;74159;52.530;13.188;2024-01-25T10:00:10;101797.00;;;7.11;65.27
41106;BME280;74159;52.530;13.188;2024-01-25T10:02:37;101785.53;;;7.14;65.64
41106;BME280;74159;52.530;13.188;2024-01-25T10:05:03;101801.22;;;7.13;65.97
41106;BME280;74159;52.530;13.188;2024-01-25T10:07:39;101807.88;;;7.24;65.02
41106;BME280;74159;52.530;13.188;2024-01-25T10:10:05;101805.94;;;7.06;65.96
41106;BME280;74159;52.530;13.188;2024-01-25T10:12:33;101807.66;;;7.26;65.12
41106;BME280;74159;52.530;13.188;2024-01-25T10:14:59;101808.63;;;7.31;65.12
41106;BME280;74159;52.530;13.188;2024-01-25T10:17:25;101816.28;;;7.29;65.25
41106;BME280;74159;52.530;13.188;2024-01-25T10:19:50;101823.25;;;7.32;65.28
41106;BME280;74159;52.530;13.188;2024-01-25T10:22:17;101811.63;;;7.30;65.17
41106;BME280;74159;52.530;13.188;2024-01-25T10:24:43;101805.28;;;7.29;65.73
41106;BME280;74159;52.530;13.188;2024-01-25T10:27:08;101795.97;;;7.48;64.56
41106;BME280;74159;52.530;13.188;2024-01-25T10:29:37;101812.13;;;7.20;65.06
41106;BME280;74159;52.530;13.188;2024-01-25T10:32:03;101820.09;;;7.28;65.36
41106;BME280;74159;52.530;13.188;2024-01-25T10:34:28;101808.34;;;7.39;64.76
41106;BME280;74159;52.530;13.188;2024-01-25T10:36:55;101812.34;;;7.43;64.70
41106;BME280;74159;52.530;13.188;2024-01-25T10:39:21;101805.53;;;7.46;65.02
41106;BME280;74159;52.530;13.188;2024-01-25T10:41:47;101811.84;;;7.28;65.27
41106;BME280;74159;52.530;13.188;2024-01-25T10:44:16;101828.97;;;7.30;65.17
41106;BME280;74159;52.530;13.188;2024-01-25T10:46:43;101815.00;;;7.50;64.29
41106;BME280;74159;52.530;13.188;2024-01-25T10:49:11;101819.13;;;7.41;64.89
41106;BME280;74159;52.530;13.188;2024-01-25T10:51:39;101816.91;;;7.49;64.37
41106;BME280;74159;52.530;13.188;2024-01-25T10:54:05;101811.72;;;7.60;64.09
41106;BME280;74159;52.530;13.188;2024-01-25T10:56:32;101823.09;;;7.63;63.96
41106;BME280;74159;52.530;13.188;2024-01-25T10:58:59;101827.44;;;7.34;65.13
41106;BME280;74159;52.530;13.188;2024-01-25T11:01:24;101823.34;;;7.43;64.75
41106;BME280;74159;52.530;13.188;2024-01-25T11:03:51;101825.50;;;7.60;63.67
41106;BME280;74159;52.530;13.188;2024-01-25T11:06:20;101833.28;;;7.63;63.17
41106;BME280;74159;52.530;13.188;2024-01-25T11:08:46;101830.97;;;7.41;64.49
41106;BME280;74159;52.530;13.188;2024-01-25T11:11:15;101820.63;;;7.37;64.41
41106;BME280;74159;52.530;13.188;2024-01-25T11:13:42;101830.53;;;7.44;64.56
41106;BME280;74159;52.530;13.188;2024-01-25T11:16:18;101832.22;;;7.64;63.43
41106;BME280;74159;52.530;13.188;2024-01-25T11:18:51;101831.00;;;7.60;63.62
41106;BME280;74159;52.530;13.188;2024-01-25T11:23:59;101816.16;;;7.79;63.13
41106;BME280;74159;52.530;13.188;2024-01-25T11:26:25;101827.31;;;7.84;62.92
41106;BME280;74159;52.530;13.188;2024-01-25T11:28:51;101835.19;;;7.80;63.24
41106;BME280;74159;52.530;13.188;2024-01-25T11:31:16;101837.84;;;7.87;62.56
41106;BME280;74159;52.530;13.188;2024-01-25T11:33:42;101830.06;;;7.66;63.42
41106;BME280;74159;52.530;13.188;2024-01-25T11:36:07;101832.59;;;7.67;62.98
41106;BME280;74159;52.530;13.188;2024-01-25T11:38:33;101839.84;;;7.80;63.00
41106;BME280;74159;52.530;13.188;2024-01-25T11:40:58;101839.72;;;7.57;63.54
41106;BME280;74159;52.530;13.188;2024-01-25T11:43:24;101842.47;;;7.75;62.73
41106;BME280;74159;52.530;13.188;2024-01-25T11:45:49;101841.53;;;7.81;63.32
41106;BME280;74159;52.530;13.188;2024-01-25T11:48:14;101836.97;;;7.75;63.42
41106;BME280;74159;52.530;13.188;2024-01-25T11:50:40;101842.59;;;7.98;63.02
41106;BME280;74159;52.530;13.188;2024-01-25T11:53:05;101844.06;;;7.82;62.86
41106;BME280;74159;52.530;13.188;2024-01-25T11:55:31;101848.84;;;8.05;62.71
41106;BME280;74159;52.530;13.188;2024-01-25T11:57:56;101840.28;;;8.13;61.96
41106;BME280;74159;52.530;13.188;2024-01-25T12:00:22;101848.09;;;7.98;62.41
41106;BME280;74159;52.530;13.188;2024-01-25T12:02:48;101856.34;;;8.17;62.32
41106;BME280;74159;52.530;13.188;2024-01-25T12:05:13;101857.00;;;8.49;61.04
41106;BME280;74159;52.530;13.188;2024-01-25T12:07:39;101857.53;;;8.21;61.41
41106;BME280;74159;52.530;13.188;2024-01-25T12:10:07;101869.81;;;8.25;62.06
41106;BME280;74159;52.530;13.188;2024-01-25T12:12:36;101855.56;;;8.28;61.87
41106;BME280;74159;52.530;13.188;2024-01-25T12:15:05;101852.91;;;8.03;62.64
41106;BME280;74159;52.530;13.188;2024-01-25T12:17:33;101856.53;;;8.33;62.13
41106;BME280;74159;52.530;13.188;2024-01-25T12:19:59;101862.59;;;8.42;61.60
41106;BME280;74159;52.530;13.188;2024-01-25T12:22:28;101865.13;;;8.25;61.70
41106;BME280;74159;52.530;13.188;2024-01-25T12:24:55;101872.66;;;8.00;62.78
41106;BME280;74159;52.530;13.188;2024-01-25T12:27:21;101871.09;;;8.22;62.25
41106;BME280;74159;52.530;13.188;2024-01-25T12:29:47;101867.97;;;8.37;61.86
41106;BME280;74159;52.530;13.188;2024-01-25T12:32:13;101868.44;;;8.34;62.15
41106;BME280;74159;52.530;13.188;2024-01-25T12:34:39;101875.91;;;8.45;61.81
41106;BME280;74159;52.530;13.188;2024-01-25T12:37:06;101860.53;;;8.19;62.26
41106;BME280;74159;52.530;13.188;2024-01-25T12:39:32;101870.72;;;8.37;61.97
41106;BME280;74159;52.530;13.188;2024-01-25T12:41:57;101865.22;;;8.19;62.74
41106;BME280;74159;52.530;13.188;2024-01-25T12:44:23;101867.06;;;8.96;60.64
41106;BME280;74159;52.530;13.188;2024-01-25T12:46:48;101858.22;;;9.18;59.33